Time;durP1;ratioP1;P1;durP2;ratioP2;P2;SDS_P1;SDS_P2;PMS_P1;PMS_P2;Temp;Humidity;BMP_temperature;BMP_pressure;BME280_temperature;BME280_humidity;BME280_pressure;Samples;Min_cycle;Max_cycle;Signal;HPM_P1;HPM_P2
2023/04/08 00:01:19;;;;;;;32.63;15.70;;;;;;;;;;5055975;28;20060;-70
2023/04/08 00:03:45;;;;;;;34.85;15.65;;;;;;;;;;5056941;28;20036;-70
2023/04/08 00:06:11;;;;;;;36.45;17.50;;;;;;;;;;5057346;28;20036;-69
2023/04/08 00:08:37;;;;;;;43.85;17.73;;;;;;;;;;5051985;28;20104;-69
2023/04/08 00:11:03;;;;;;;36.97;17.27;;;;;;;;;;5052007;28;20104;-69
2023/04/08 00:13:29;;;;;;;34.80;16.98;;;;;;;;;;5051654;28;20501;-69
2023/04/08 00:15:55;;;;;;;34.28;17.83;;;;;;;;;;5052301;28;20028;-68
2023/04/08 00:18:21;;;;;;;41.15;17.13;;;;;;;;;;5051813;28;20031;-69
2023/04/08 00:20:47;;;;;;;33.85;16.70;;;;;;;;;;5051882;28;20079;-69
2023/04/08 00:23:13;;;;;;;38.25;16.35;;;;;;;;;;5051628;28;20104;-68
2023/04/08 00:25:39;;;;;;;32.65;17.05;;;;;;;;;;5051653;28;20387;-69
2023/04/08 00:28:05;;;;;;;36.63;16.70;;;;;;;;;;5052075;28;20092;-70
2023/04/08 00:30:31;;;;;;;34.10;16.95;;;;;;;;;;5053374;28;20451;-69
2023/04/08 00:32:57;;;;;;;30.50;16.23;;;;;;;;;;5052124;28;20017;-69
2023/04/08 00:35:23;;;;;;;33.22;15.57;;;;;;;;;;5051670;28;20029;-69
2023/04/08 00:37:50;;;;;;;28.00;15.68;;;;;;;;;;5052456;28;20025;-70
2023/04/08 00:40:16;;;;;;;33.20;16.08;;;;;;;;;;5052741;28;20048;-70
2023/04/08 00:42:42;;;;;;;31.95;15.68;;;;;;;;;;5053369;28;20029;-69
2023/04/08 00:45:08;;;;;;;34.97;16.30;;;;;;;;;;5052453;28;20544;-70
2023/04/08 00:47:35;;;;;;;33.67;15.18;;;;;;;;;;5052490;28;20163;-70
2023/04/08 00:50:01;;;;;;;34.60;16.70;;;;;;;;;;5052846;28;20025;-69
2023/04/08 00:52:27;;;;;;;32.60;15.18;;;;;;;;;;5053429;28;20469;-71
2023/04/08 00:54:53;;;;;;;33.60;15.05;;;;;;;;;;5062735;28;20122;-71
2023/04/08 00:57:19;;;;;;;33.33;14.95;;;;;;;;;;5053039;28;20033;-70
2023/04/08 00:59:45;;;;;;;32.60;16.15;;;;;;;;;;5053068;28;20491;-70
2023/04/08 01:02:31;;;;;;;31.70;16.23;;;;;;;;;;5052859;28;20064;-71
2023/04/08 01:05:02;;;;;;;29.98;14.73;;;;;;;;;;5068483;28;20177;-70
2023/04/08 01:07:30;;;;;;;31.77;15.15;;;;;;;;;;5077144;28;20035;-71
2023/04/08 01:09:58;;;;;;;30.13;14.98;;;;;;;;;;5077405;28;20029;-70
2023/04/08 01:12:28;;;;;;;37.28;14.30;;;;;;;;;;5077636;28;20362;-71
2023/04/08 01:15:00;;;;;;;41.28;15.05;;;;;;;;;;5075624;28;20545;-70
2023/04/08 01:17:27;;;;;;;31.35;14.80;;;;;;;;;;5075800;28;20086;-69
2023/04/08 01:19:54;;;;;;;33.50;15.38;;;;;;;;;;5074855;28;20041;-71
2023/04/08 01:22:20;;;;;;;31.95;15.73;;;;;;;;;;5073938;28;20040;-70
2023/04/08 01:24:47;;;;;;;32.42;17.40;;;;;;;;;;5074298;28;20032;-70
2023/04/08 01:27:13;;;;;;;41.80;16.45;;;;;;;;;;5074867;28;20367;-69
2023/04/08 01:29:40;;;;;;;34.10;17.10;;;;;;;;;;5074628;28;20029;-69
2023/04/08 01:32:07;;;;;;;31.38;16.75;;;;;;;;;;5074640;28;20055;-69
2023/04/08 01:34:34;;;;;;;39.33;16.50;;;;;;;;;;5074653;28;20032;-69
2023/04/08 01:37:01;;;;;;;31.45;15.32;;;;;;;;;;5074818;28;20025;-69
2023/04/08 01:39:28;;;;;;;37.50;16.77;;;;;;;;;;5074475;28;20027;-69
2023/04/08 01:41:54;;;;;;;32.88;16.75;;;;;;;;;;5074372;28;20458;-69
2023/04/08 01:44:21;;;;;;;32.33;16.88;;;;;;;;;;5074396;28;20165;-69
2023/04/08 01:46:47;;;;;;;34.50;17.60;;;;;;;;;;5074558;28;20024;-69
2023/04/08 01:49:14;;;;;;;36.97;18.00;;;;;;;;;;5074432;28;20028;-69
2023/04/08 01:51:40;;;;;;;36.30;18.17;;;;;;;;;;5075728;28;20032;-69
2023/04/08 01:54:06;;;;;;;37.60;17.80;;;;;;;;;;5074772;28;20063;-68
2023/04/08 01:56:35;;;;;;;39.58;18.05;;;;;;;;;;5075454;28;20033;-69
2023/04/08 01:59:03;;;;;;;37.17;17.38;;;;;;;;;;5056904;28;20389;-70
2023/04/08 02:01:30;;;;;;;38.30;18.80;;;;;;;;;;5075269;28;20052;-68
2023/04/08 02:03:57;;;;;;;36.35;17.58;;;;;;;;;;5074335;28;20029;-69
2023/04/08 02:06:25;;;;;;;37.05;18.25;;;;;;;;;;5074203;28;20040;-69
2023/04/08 02:08:51;;;;;;;44.13;17.75;;;;;;;;;;5073916;28;20019;-69
2023/04/08 02:11:17;;;;;;;40.25;17.23;;;;;;;;;;5074385;28;20028;-69
2023/04/08 02:13:43;;;;;;;35.20;17.02;;;;;;;;;;5072419;28;20067;-69
2023/04/08 02:16:12;;;;;;;37.25;17.25;;;;;;;;;;5074045;28;20471;-69
2023/04/08 02:18:39;;;;;;;32.63;16.20;;;;;;;;;;5074375;28;20044;-75
2023/04/08 02:21:11;;;;;;;31.38;16.30;;;;;;;;;;5074658;28;20035;-70
2023/04/08 02:23:38;;;;;;;31.10;15.65;;;;;;;;;;5074781;28;20017;-69
2023/04/08 02:26:07;;;;;;;31.60;17.17;;;;;;;;;;5074124;28;20082;-69
2023/04/08 02:28:34;;;;;;;32.08;15.55;;;;;;;;;;5073860;28;20086;-70
2023/04/08 02:31:02;;;;;;;29.95;15.70;;;;;;;;;;5073816;28;20017;-70
2023/04/08 02:33:28;;;;;;;28.95;15.45;;;;;;;;;;5073650;28;20418;-69
2023/04/08 02:35:55;;;;;;;28.52;14.70;;;;;;;;;;5073974;28;20029;-70
2023/04/08 02:38:22;;;;;;;40.72;17.45;;;;;;;;;;5073651;28;20028;-69
2023/04/08 02:40:50;;;;;;;29.77;16.45;;;;;;;;;;5074076;28;20051;-70
2023/04/08 02:43:16;;;;;;;36.17;16.33;;;;;;;;;;5073362;28;20509;-70
2023/04/08 02:45:42;;;;;;;30.98;15.35;;;;;;;;;;5073591;28;20024;-71
2023/04/08 02:48:08;;;;;;;29.83;16.05;;;;;;;;;;5073318;28;20025;-72
2023/04/08 02:50:34;;;;;;;29.75;16.83;;;;;;;;;;5073304;28;20044;-72
2023/04/08 02:53:00;;;;;;;35.70;16.52;;;;;;;;;;5073082;28;20043;-68
2023/04/08 02:55:26;;;;;;;31.67;16.27;;;;;;;;;;5073769;28;20028;-68
2023/04/08 02:57:52;;;;;;;29.00;15.73;;;;;;;;;;5074021;28;20559;-72
2023/04/08 03:00:18;;;;;;;31.05;15.80;;;;;;;;;;5074395;28;20032;-72
2023/04/08 03:02:44;;;;;;;32.47;15.88;;;;;;;;;;5074223;28;20557;-71
2023/04/08 03:05:11;;;;;;;28.00;16.55;;;;;;;;;;5074393;28;20028;-72
2023/04/08 03:07:37;;;;;;;26.63;15.48;;;;;;;;;;5073222;28;20021;-70
2023/04/08 03:10:03;;;;;;;28.67;15.88;;;;;;;;;;5073114;28;20335;-71
2023/04/08 03:12:30;;;;;;;33.17;15.43;;;;;;;;;;5072776;28;20020;-68
2023/04/08 03:14:56;;;;;;;26.50;14.70;;;;;;;;;;5072842;28;20055;-68
2023/04/08 03:17:22;;;;;;;28.58;15.20;;;;;;;;;;5072673;28;20443;-68
2023/04/08 03:19:48;;;;;;;31.80;16.88;;;;;;;;;;5072867;28;20025;-69
2023/04/08 03:22:14;;;;;;;29.73;15.43;;;;;;;;;;5072498;28;20524;-69
2023/04/08 03:24:40;;;;;;;27.58;15.23;;;;;;;;;;5072744;28;20055;-68
2023/04/08 03:27:07;;;;;;;29.27;16.88;;;;;;;;;;5072178;28;20500;-69
2023/04/08 03:29:33;;;;;;;27.00;15.82;;;;;;;;;;5072843;28;20047;-69
2023/04/08 03:31:59;;;;;;;24.25;14.52;;;;;;;;;;5072517;28;20474;-69
2023/04/08 03:34:25;;;;;;;34.83;16.00;;;;;;;;;;5072653;28;20095;-70
2023/04/08 03:36:51;;;;;;;30.30;16.15;;;;;;;;;;5054684;28;20056;-70
2023/04/08 03:39:17;;;;;;;32.50;16.27;;;;;;;;;;5072711;28;20363;-70
2023/04/08 03:41:43;;;;;;;35.33;16.45;;;;;;;;;;5072465;28;20035;-71
2023/04/08 03:44:09;;;;;;;34.78;17.52;;;;;;;;;;5072517;28;20063;-71
2023/04/08 03:46:35;;;;;;;28.23;16.35;;;;;;;;;;5072395;28;20381;-70
2023/04/08 03:49:01;;;;;;;36.88;17.10;;;;;;;;;;5072340;28;20023;-70
2023/04/08 03:51:27;;;;;;;34.35;17.58;;;;;;;;;;5072300;28;20028;-71
2023/04/08 03:53:53;;;;;;;37.38;18.17;;;;;;;;;;5072300;28;20035;-70
2023/04/08 03:56:19;;;;;;;45.90;19.90;;;;;;;;;;5072028;28;20025;-70
2023/04/08 03:58:45;;;;;;;39.17;20.63;;;;;;;;;;5072325;28;20082;-70
2023/04/08 04:01:11;;;;;;;45.17;21.40;;;;;;;;;;5072892;28;20029;-69
2023/04/08 04:03:37;;;;;;;44.28;21.63;;;;;;;;;;5072387;28;20439;-70
2023/04/08 04:06:03;;;;;;;41.65;22.65;;;;;;;;;;5072414;28;20031;-70
2023/04/08 04:08:29;;;;;;;47.60;23.98;;;;;;;;;;5072138;28;20469;-70
2023/04/08 04:10:55;;;;;;;43.40;21.95;;;;;;;;;;5072047;28;20047;-70
2023/04/08 04:13:21;;;;;;;50.95;22.73;;;;;;;;;;5071615;28;20479;-71
2023/04/08 04:15:47;;;;;;;51.30;24.52;;;;;;;;;;5071890;28;20021;-70
2023/04/08 04:18:13;;;;;;;53.53;24.98;;;;;;;;;;5071793;28;20363;-70
2023/04/08 04:20:40;;;;;;;46.72;24.38;;;;;;;;;;5071793;28;20085;-70
2023/04/08 04:23:06;;;;;;;45.08;23.25;;;;;;;;;;5071745;28;20093;-70
2023/04/08 04:25:32;;;;;;;52.08;23.42;;;;;;;;;;5072139;28;20398;-70
2023/04/08 04:27:58;;;;;;;41.47;22.85;;;;;;;;;;5071761;28;20021;-70
2023/04/08 04:30:24;;;;;;;49.10;22.80;;;;;;;;;;5071785;28;20029;-72
2023/04/08 04:32:50;;;;;;;57.92;24.42;;;;;;;;;;5071529;28;20059;-69
2023/04/08 04:35:16;;;;;;;53.78;24.75;;;;;;;;;;5071793;28;20029;-71
2023/04/08 04:37:42;;;;;;;49.22;24.75;;;;;;;;;;5071785;28;20025;-70
2023/04/08 04:40:08;;;;;;;50.30;24.55;;;;;;;;;;5071037;28;20021;-69
2023/04/08 04:42:34;;;;;;;50.88;24.67;;;;;;;;;;5071822;28;20497;-69
2023/04/08 04:45:00;;;;;;;54.42;24.80;;;;;;;;;;5071503;28;20178;-70
2023/04/08 04:47:27;;;;;;;59.92;25.92;;;;;;;;;;5071273;28;20094;-71
2023/04/08 04:49:53;;;;;;;50.53;25.67;;;;;;;;;;5071548;28;20466;-71
2023/04/08 04:52:19;;;;;;;56.45;26.73;;;;;;;;;;5071962;28;20026;-71
2023/04/08 04:54:45;;;;;;;56.05;25.63;;;;;;;;;;5072358;28;20424;-70
2023/04/08 04:57:11;;;;;;;61.00;27.70;;;;;;;;;;5071202;28;20032;-70
2023/04/08 04:59:37;;;;;;;55.05;25.52;;;;;;;;;;5071451;28;20443;-71
2023/04/08 05:02:03;;;;;;;54.17;26.90;;;;;;;;;;5071247;28;20028;-70
2023/04/08 05:04:29;;;;;;;57.38;25.33;;;;;;;;;;5071727;28;20021;-70
2023/04/08 05:06:55;;;;;;;59.22;26.00;;;;;;;;;;5052269;28;20052;-71
2023/04/08 05:09:21;;;;;;;51.53;25.50;;;;;;;;;;5056463;28;20020;-70
2023/04/08 05:11:47;;;;;;;68.43;27.45;;;;;;;;;;5059466;28;20420;-71
2023/04/08 05:14:13;;;;;;;63.42;25.83;;;;;;;;;;5065189;28;20115;-71
2023/04/08 05:16:39;;;;;;;53.00;25.83;;;;;;;;;;5054927;28;20082;-71
2023/04/08 05:19:05;;;;;;;61.38;27.17;;;;;;;;;;5064797;28;20040;-70
2023/04/08 05:21:31;;;;;;;57.05;26.77;;;;;;;;;;5064880;28;20520;-71
2023/04/08 05:23:57;;;;;;;61.58;27.60;;;;;;;;;;5068106;28;20032;-71
2023/04/08 05:26:23;;;;;;;59.85;26.88;;;;;;;;;;5063443;28;20056;-71
2023/04/08 05:28:52;;;;;;;66.00;29.95;;;;;;;;;;5045669;28;20025;-71
2023/04/08 05:31:19;;;;;;;66.18;31.08;;;;;;;;;;5062392;28;20060;-69
2023/04/08 05:33:45;;;;;;;64.40;31.77;;;;;;;;;;5055750;28;20346;-69
2023/04/08 05:36:12;;;;;;;68.63;30.08;;;;;;;;;;5059946;28;20037;-69
2023/04/08 05:38:38;;;;;;;67.82;31.35;;;;;;;;;;5064011;28;20165;-70
2023/04/08 05:41:04;;;;;;;69.72;31.15;;;;;;;;;;5062826;28;20109;-70
2023/04/08 05:43:32;;;;;;;67.18;31.08;;;;;;;;;;5061799;28;20067;-74
2023/04/08 05:45:58;;;;;;;63.60;30.42;;;;;;;;;;5059328;28;20028;-68
2023/04/08 05:48:24;;;;;;;63.70;29.65;;;;;;;;;;5060579;28;20107;-69
2023/04/08 05:50:50;;;;;;;58.58;29.05;;;;;;;;;;5059330;28;20024;-70
2023/04/08 05:53:16;;;;;;;56.40;28.23;;;;;;;;;;5063960;28;20029;-69
2023/04/08 05:55:42;;;;;;;66.00;30.08;;;;;;;;;;5069248;28;20512;-69
2023/04/08 05:58:08;;;;;;;62.53;28.83;;;;;;;;;;5062336;28;20124;-70
2023/04/08 06:00:34;;;;;;;69.50;30.85;;;;;;;;;;5064031;28;20045;-69
2023/04/08 06:03:00;;;;;;;74.78;31.33;;;;;;;;;;5059668;28;20029;-68
2023/04/08 06:05:26;;;;;;;68.43;30.83;;;;;;;;;;5065660;28;20124;-69
2023/04/08 06:07:52;;;;;;;66.75;31.75;;;;;;;;;;5062211;28;20024;-68
2023/04/08 06:10:18;;;;;;;63.78;30.65;;;;;;;;;;5061915;28;20453;-70
2023/04/08 06:12:44;;;;;;;82.85;34.22;;;;;;;;;;5069855;28;20024;-72
2023/04/08 06:15:10;;;;;;;70.18;31.70;;;;;;;;;;5068311;28;20028;-70
2023/04/08 06:17:36;;;;;;;74.60;31.35;;;;;;;;;;5064131;28;20107;-73
2023/04/08 06:20:02;;;;;;;66.93;32.53;;;;;;;;;;5062160;28;20221;-69
2023/04/08 06:22:29;;;;;;;73.32;31.63;;;;;;;;;;5053886;28;20479;-68
2023/04/08 06:24:55;;;;;;;69.57;32.08;;;;;;;;;;5053890;28;20078;-68
2023/04/08 06:27:22;;;;;;;75.85;32.17;;;;;;;;;;5053780;28;20029;-69
2023/04/08 06:29:48;;;;;;;71.13;31.92;;;;;;;;;;5053834;28;20406;-70
2023/04/08 06:32:15;;;;;;;63.63;30.30;;;;;;;;;;5053839;28;20021;-69
2023/04/08 06:34:40;;;;;;;66.53;30.70;;;;;;;;;;5054205;28;20096;-69
2023/04/08 06:37:07;;;;;;;68.82;29.60;;;;;;;;;;5054350;28;20067;-69
2023/04/08 06:39:33;;;;;;;62.05;27.73;;;;;;;;;;5055636;28;20033;-70
2023/04/08 06:41:59;;;;;;;56.10;26.35;;;;;;;;;;5057576;28;20139;-70
2023/04/08 06:44:24;;;;;;;56.97;26.85;;;7.90;99.90;;;;;;5062640;28;20039;-70
2023/04/08 06:46:50;;;;;;;58.33;27.15;;;7.10;99.90;;;;;;5062121;28;20021;-71
2023/04/08 06:49:16;;;;;;;62.45;27.60;;;7.10;99.90;;;;;;5059534;28;20032;-73
2023/04/08 06:51:42;;;;;;;54.38;25.50;;;7.10;99.90;;;;;;5053785;28;20021;-69
2023/04/08 06:54:10;;;;;;;49.03;22.65;;;7.20;99.90;;;;;;5053790;28;20483;-70
2023/04/08 06:56:36;;;;;;;48.72;22.65;;;7.20;99.90;;;;;;5053659;28;20029;-70
2023/04/08 06:59:03;;;;;;;47.42;22.23;;;7.20;99.90;;;;;;5053816;28;20040;-70
2023/04/08 07:01:29;;;;;;;44.95;21.05;;;7.30;99.90;;;;;;5052784;28;20025;-70
2023/04/08 07:03:55;;;;;;;45.75;22.13;;;7.30;99.90;;;;;;5053646;28;20102;-70
2023/04/08 07:06:21;;;;;;;48.92;21.50;;;7.30;99.90;;;;;;5053524;28;20024;-70
2023/04/08 07:08:46;;;;;;;46.50;21.65;;;7.20;99.90;;;;;;5055819;28;20025;-73
2023/04/08 07:11:12;;;;;;;49.53;22.15;;;7.20;99.90;;;;;;5055105;28;20040;-74
2023/04/08 07:13:38;;;;;;;50.63;22.73;;;7.10;99.90;;;;;;5053624;28;20467;-71
2023/04/08 07:16:03;;;;;;;44.95;22.27;;;7.30;99.90;;;;;;5053432;28;20025;-74
2023/04/08 07:18:29;;;;;;;49.55;23.38;;;7.30;99.90;;;;;;5053031;28;20032;-70
2023/04/08 07:20:55;;;;;;;47.65;23.15;;;7.40;99.90;;;;;;5052930;28;20028;-70
2023/04/08 07:23:21;;;;;;;53.42;24.20;;;7.40;99.90;;;;;;5052664;28;20372;-69
2023/04/08 07:25:47;;;;;;;50.55;23.05;;;7.40;99.90;;;;;;5054362;28;20072;-70
2023/04/08 07:28:12;;;;;;;50.25;23.95;;;7.50;99.90;;;;;;5054334;28;20105;-69
2023/04/08 07:30:38;;;;;;;50.60;22.58;;;7.60;99.90;;;;;;5054433;28;20060;-69
2023/04/08 07:33:04;;;;;;;50.08;24.65;;;7.50;99.90;;;;;;5069494;28;20033;-70
2023/04/08 07:35:30;;;;;;;47.00;22.45;;;7.60;99.90;;;;;;5072720;28;20055;-70
2023/04/08 07:37:56;;;;;;;43.88;21.48;;;7.60;99.90;;;;;;5053234;28;20083;-70
2023/04/08 07:40:22;;;;;;;46.63;23.08;;;7.60;99.90;;;;;;5052719;28;20033;-69
2023/04/08 07:42:48;;;;;;;50.05;23.42;;;7.80;99.90;;;;;;5052218;28;20478;-71
2023/04/08 07:45:14;;;;;;;54.50;23.38;;;7.80;99.90;;;;;;5052453;28;20021;-69
2023/04/08 07:47:40;;;;;;;52.13;23.33;;;7.80;99.90;;;;;;5052487;28;20025;-69
2023/04/08 07:50:06;;;;;;;49.00;22.35;;;7.80;99.90;;;;;;5052331;28;20100;-70
2023/04/08 07:52:32;;;;;;;46.25;21.95;;;7.80;99.90;;;;;;5052098;28;20061;-70
2023/04/08 07:54:58;;;;;;;43.15;22.25;;;7.70;99.90;;;;;;5052250;28;20025;-70
2023/04/08 07:57:24;;;;;;;44.55;21.55;;;7.80;99.90;;;;;;5052189;28;20029;-70
2023/04/08 07:59:50;;;;;;;50.55;21.98;;;7.80;99.90;;;;;;5052501;28;20107;-70
2023/04/08 08:02:15;;;;;;;40.03;21.42;;;7.70;99.90;;;;;;5064118;28;20063;-69
2023/04/08 08:04:41;;;;;;;53.00;22.98;;;7.70;99.90;;;;;;5072042;28;20029;-70
2023/04/08 08:07:06;;;;;;;45.95;21.05;;;7.70;99.90;;;;;;5071249;28;20086;-70
2023/04/08 08:09:32;;;;;;;45.53;22.33;;;7.70;99.90;;;;;;5071651;28;20047;-70
2023/04/08 08:11:58;;;;;;;53.30;23.63;;;7.70;99.90;;;;;;5071259;28;20076;-71
2023/04/08 08:14:25;;;;;;;48.97;22.05;;;7.70;99.90;;;;;;5071852;28;20025;-70
2023/04/08 08:16:52;;;;;;;46.13;22.23;;;7.60;99.90;;;;;;5052588;28;20024;-68
2023/04/08 08:19:21;;;;;;;51.83;22.15;;;7.70;99.90;;;;;;5051764;28;20104;-70
2023/04/08 08:21:47;;;;;;;41.08;20.92;;;7.70;99.90;;;;;;5051593;28;20039;-71
2023/04/08 08:24:13;;;;;;;51.42;21.17;;;7.70;99.90;;;;;;5051507;28;20029;-69
2023/04/08 08:26:39;;;;;;;44.17;20.92;;;7.70;99.90;;;;;;5051360;28;20364;-69
2023/04/08 08:29:07;;;;;;;37.47;18.27;;;7.60;99.90;;;;;;5051036;28;20032;-70
2023/04/08 08:31:35;;;;;;;36.30;19.05;;;7.70;99.90;;;;;;5051375;28;20029;-69
2023/04/08 08:34:01;;;;;;;40.55;18.73;;;7.80;99.90;;;;;;5051315;28;20048;-70
2023/04/08 08:36:27;;;;;;;40.75;18.70;;;7.70;99.90;;;;;;5051410;28;20424;-71
2023/04/08 08:38:53;;;;;;;37.10;17.52;;;7.70;99.90;;;;;;5052157;28;20053;-71
2023/04/08 08:41:20;;;;;;;36.80;18.30;;;7.70;99.90;;;;;;5052138;28;20448;-71
2023/04/08 08:43:45;;;;;;;39.85;18.00;;;7.80;99.90;;;;;;5052531;28;20036;-69
2023/04/08 08:46:14;;;;;;;40.67;19.55;;;7.70;99.90;;;;;;5052511;28;20387;-72
2023/04/08 08:48:40;;;;;;;40.53;20.05;;;7.80;99.90;;;;;;5053540;28;20025;-70
2023/04/08 08:51:12;;;;;;;40.47;20.33;;;7.70;99.90;;;;;;5051348;28;20029;-74
2023/04/08 08:53:39;;;;;;;38.53;21.33;;;7.80;99.90;;;;;;5051956;28;20021;-74
2023/04/08 08:56:08;;;;;;;48.40;21.98;;;7.80;99.90;;;;;;5049303;28;20063;-71
2023/04/08 08:58:34;;;;;;;45.47;21.00;;;7.80;99.90;;;;;;5051215;28;20390;-71
2023/04/08 09:00:59;;;;;;;47.78;22.67;;;7.90;99.90;;;;;;5051647;28;20053;-75
2023/04/08 09:03:26;;;;;;;46.47;22.33;;;8.00;99.90;;;;;;5051104;28;20485;-74
2023/04/08 09:05:57;;;;;;;46.85;23.17;;;8.00;99.90;;;;;;5051044;28;20032;-73
2023/04/08 09:08:34;;;;;;;54.22;25.08;;;8.10;99.90;;;;;;5051520;28;20033;-71
2023/04/08 09:11:17;;;;;;;54.47;23.38;;;8.10;99.90;;;;;;5051394;28;20079;-72
2023/04/08 09:13:43;;;;;;;50.35;24.70;;;8.10;99.90;;;;;;5051346;28;20154;-71
2023/04/08 09:16:11;;;;;;;54.97;23.63;;;8.10;99.90;;;;;;5051404;28;20027;-69
2023/04/08 09:18:37;;;;;;;39.10;21.33;;;8.20;99.90;;;;;;5051117;28;20029;-71
2023/04/08 09:21:04;;;;;;;50.78;20.60;;;8.30;99.90;;;;;;5051067;28;20029;-70
2023/04/08 09:23:45;;;;;;;49.15;21.08;;;8.40;99.90;;;;;;5050941;28;20029;-69
2023/04/08 09:26:12;;;;;;;49.33;21.27;;;8.60;99.90;;;;;;5053944;28;20100;-70
2023/04/08 09:28:38;;;;;;;39.85;19.20;;;8.70;99.90;;;;;;5054807;28;20025;-70
2023/04/08 09:31:20;;;;;;;33.20;18.25;;;8.80;99.60;;;;;;5054681;28;20402;-71
2023/04/08 09:33:51;;;;;;;37.15;18.88;;;8.90;96.30;;;;;;5054655;28;20094;-71
2023/04/08 09:36:17;;;;;;;30.98;17.10;;;8.90;96.40;;;;;;5055087;28;20025;-71
2023/04/08 09:38:43;;;;;;;43.78;19.95;;;8.90;95.30;;;;;;5055048;28;20029;-74
2023/04/08 09:41:19;;;;;;;36.42;18.52;;;8.90;96.00;;;;;;5055122;28;20116;-71
2023/04/08 09:43:53;;;;;;;41.67;19.75;;;9.00;95.30;;;;;;5054686;28;20032;-71
2023/04/08 09:46:30;;;;;;;42.37;20.87;;;9.10;94.30;;;;;;5055059;28;20053;-69
2023/04/08 09:49:48;;;;;;;41.35;21.48;;;9.10;94.40;;;;;;5054675;28;20443;-70
2023/04/08 09:52:28;;;;;;;47.42;25.80;;;9.10;94.40;;;;;;5020367;28;20398;-72
2023/04/08 09:55:05;;;;;;;44.35;23.00;;;9.10;95.40;;;;;;5054303;28;20025;-70
2023/04/08 09:57:43;;;;;;;50.47;23.35;;;9.10;95.70;;;;;;5054329;28;20037;-69
2023/04/08 10:00:13;;;;;;;46.35;23.83;;;9.10;95.70;;;;;;5054272;28;20025;-70
2023/04/08 10:02:55;;;;;;;47.78;23.52;;;9.00;95.40;;;;;;5054063;28;20104;-70
2023/04/08 10:05:23;;;;;;;47.40;23.65;;;;;;;;;;5054627;28;20025;-70
2023/04/08 10:07:49;;;;;;;47.20;22.88;;;;;;;;;;5054472;28;20021;-71
2023/04/08 10:10:16;;;;;;;41.47;22.08;;;;;;;;;;5054231;28;20017;-70
2023/04/08 10:12:42;;;;;;;39.40;20.50;;;;;;;;;;5054157;28;20049;-70
2023/04/08 10:15:27;;;;;;;48.33;22.67;;;;;;;;;;5054477;28;20025;-70
2023/04/08 10:17:55;;;;;;;45.13;23.40;;;;;;;;;;5054189;28;20048;-70
2023/04/08 10:20:34;;;;;;;44.83;23.02;;;;;;;;;;5054291;28;20025;-69
2023/04/08 10:23:01;;;;;;;45.67;21.88;;;;;;;;;;5053636;28;20013;-71
2023/04/08 10:25:33;;;;;;;53.13;24.85;;;;;;;;;;5054071;28;20044;-70
2023/04/08 10:27:59;;;;;;;44.17;22.65;;;;;;;;;;5053947;28;20031;-69
2023/04/08 10:30:25;;;;;;;47.65;22.70;;;;;;;;;;5054011;28;20071;-71
2023/04/08 10:32:52;;;;;;;51.22;22.90;;;;;;;;;;5054253;28;20033;-71
2023/04/08 10:35:28;;;;;;;42.17;21.35;;;;;;;;;;5054728;28;20033;-72
2023/04/08 10:37:54;;;;;;;41.22;21.42;;;;;;;;;;5052503;28;20032;-72
2023/04/08 10:40:20;;;;;;;33.67;19.02;;;;;;;;;;5053886;28;20032;-70
2023/04/08 10:42:46;;;;;;;34.40;18.92;;;;;;;;;;5053356;28;20502;-71
2023/04/08 10:45:18;;;;;;;43.45;21.50;;;;;;;;;;5053415;28;20163;-68
2023/04/08 10:47:44;;;;;;;42.03;21.67;;;;;;;;;;5053353;28;20474;-70
2023/04/08 10:50:14;;;;;;;42.88;20.88;;;;;;;;;;5053709;28;20387;-71
2023/04/08 10:53:07;;;;;;;35.78;20.88;;;;;;;;;;5053039;28;20021;-70
2023/04/08 10:55:33;;;;;;;45.08;21.40;;;;;;;;;;5049038;28;20449;-71
2023/04/08 10:58:10;;;;;;;41.88;20.35;;;;;;;;;;5053263;28;20390;-71
2023/04/08 11:00:37;;;;;;;39.45;22.08;;;;;;;;;;5053301;28;20363;-70
2023/04/08 11:03:07;;;;;;;41.97;21.63;;;;;;;;;;5053460;28;20028;-70
2023/04/08 11:05:34;;;;;;;42.47;22.17;;;;;;;;;;5054984;28;20059;-71
2023/04/08 11:08:00;;;;;;;41.15;22.10;;;;;;;;;;5053248;28;20491;-70
2023/04/08 11:10:27;;;;;;;40.75;22.10;;;;;;;;;;5052702;28;20021;-71
2023/04/08 11:12:57;;;;;;;49.03;23.17;;;;;;;;;;5052717;28;20033;-70
2023/04/08 11:15:26;;;;;;;43.40;22.77;;;;;;;;;;5053107;28;20116;-70
2023/04/08 11:17:53;;;;;;;47.95;22.65;;;;;;;;;;5053102;28;20024;-70
2023/04/08 11:20:20;;;;;;;40.90;21.70;;;;;;;;;;5052962;28;20020;-70
2023/04/08 11:22:47;;;;;;;39.92;21.67;;;;;;;;;;5052719;28;20052;-71
2023/04/08 11:25:13;;;;;;;42.03;22.90;;;;;;;;;;5053421;28;20036;-70
2023/04/08 11:27:39;;;;;;;46.72;25.13;;;;;;;;;;5052894;28;20382;-72
2023/04/08 11:30:06;;;;;;;45.85;24.15;;;;;;;;;;5053012;28;20201;-72
2023/04/08 11:32:33;;;;;;;41.45;23.38;;;;;;;;;;5052311;28;20021;-71
2023/04/08 11:35:03;;;;;;;51.55;24.20;;;;;;;;;;5052914;28;20394;-70
2023/04/08 11:37:38;;;;;;;47.78;23.95;;;;;;;;;;5052717;28;20049;-71
2023/04/08 11:40:08;;;;;;;52.45;25.67;;;;;;;;;;5052777;28;20021;-70
2023/04/08 11:42:34;;;;;;;48.53;24.85;;;;;;;;;;5060500;28;20051;-71
2023/04/08 11:45:00;;;;;;;45.17;24.92;;;;;;;;;;5072109;28;20113;-72
2023/04/08 11:47:32;;;;;;;41.47;22.73;;;;;;;;;;5052300;28;20025;-71
2023/04/08 11:49:59;;;;;;;49.45;24.73;;;;;;;;;;5052644;28;20017;-72
2023/04/08 11:52:40;;;;;;;51.70;26.98;;;;;;;;;;5051747;28;20028;-72
2023/04/08 11:55:07;;;;;;;38.53;22.08;;;;;;;;;;5052371;28;20021;-71
2023/04/08 11:57:33;;;;;;;44.22;23.55;;;;;;;;;;5071766;28;20133;-70
2023/04/08 11:59:59;;;;;;;35.13;20.23;;;;;;;;;;5072230;28;20017;-71
2023/04/08 12:02:25;;;;;;;46.95;22.98;;;;;;;;;;5071926;28;20036;-72
2023/04/08 12:04:51;;;;;;;49.35;25.00;;;;;;;;;;5072096;28;20028;-71
2023/04/08 12:07:17;;;;;;;49.53;26.42;;;;;;;;;;5071565;28;20033;-72
2023/04/08 12:09:43;;;;;;;53.38;25.80;;;;;;;;;;5072150;28;20100;-71
2023/04/08 12:12:09;;;;;;;53.22;28.17;;;;;;;;;;5071247;28;20513;-72
2023/04/08 12:14:35;;;;;;;44.33;24.55;;;;;;;;;;5071837;28;20052;-71
2023/04/08 12:17:01;;;;;;;47.70;23.50;;;;;;;;;;5071706;28;20484;-70
2023/04/08 12:19:27;;;;;;;47.30;23.17;;;;;;;;;;5071641;28;20482;-71
2023/04/08 12:21:53;;;;;;;49.42;23.23;;;;;;;;;;5071325;28;20029;-72
2023/04/08 12:24:19;;;;;;;47.75;23.65;;;;;;;;;;5071556;28;20078;-72
2023/04/08 12:26:45;;;;;;;45.25;24.73;;;;;;;;;;5071746;28;20036;-73
2023/04/08 12:29:12;;;;;;;43.53;23.23;;;;;;;;;;5071900;28;20025;-74
2023/04/08 12:31:38;;;;;;;38.75;22.98;;;;;;;;;;5072052;28;20418;-74
2023/04/08 12:34:05;;;;;;;48.13;24.63;;;;;;;;;;5071482;28;20086;-72
2023/04/08 12:36:32;;;;;;;40.83;22.55;;;;;;;;;;5072290;28;20478;-72
2023/04/08 12:38:58;;;;;;;43.63;23.88;;;;;;;;;;5072140;28;20458;-73
2023/04/08 12:41:24;;;;;;;41.42;22.23;;;;;;;;;;5071734;28;20455;-72
2023/04/08 12:43:50;;;;;;;38.42;22.23;;;;;;;;;;5071394;28;20021;-71
2023/04/08 12:46:15;;;;;;;47.60;24.08;;;;;;;;;;5071664;28;20032;-71
2023/04/08 12:48:43;;;;;;;40.50;23.27;;;;;;;;;;5071430;28;20149;-72
2023/04/08 12:51:10;;;;;;;46.35;22.52;;;;;;;;;;5071029;28;20093;-72
2023/04/08 12:53:36;;;;;;;40.20;22.45;;;;;;;;;;5071037;28;20023;-71
2023/04/08 12:56:02;;;;;;;47.10;24.13;;;;;;;;;;5072276;28;20037;-72
2023/04/08 12:58:28;;;;;;;50.15;23.13;;;;;;;;;;5072067;28;20043;-72
2023/04/08 13:00:54;;;;;;;43.20;21.90;;;;;;;;;;5074215;28;20056;-69
2023/04/08 13:03:20;;;;;;;35.50;21.23;;;;;;;;;;5075736;28;20107;-70
2023/04/08 13:05:47;;;;;;;38.35;21.75;;;;;;;;;;5076107;28;20029;-71
2023/04/08 13:08:13;;;;;;;37.33;21.38;;;;;;;;;;5076417;28;20056;-72
2023/04/08 13:10:39;;;;;;;39.85;22.50;;;;;;;;;;5075840;28;20017;-71
2023/04/08 13:13:05;;;;;;;41.15;21.33;;;;;;;;;;5076812;28;20382;-70
2023/04/08 13:15:31;;;;;;;44.67;23.05;;;;;;;;;;5076582;28;20032;-72
2023/04/08 13:17:57;;;;;;;42.20;23.02;;;;;;;;;;5076467;28;20025;-73
2023/04/08 13:20:24;;;;;;;46.67;23.55;;;;;;;;;;5079383;28;20549;-74
2023/04/08 13:22:51;;;;;;;46.50;23.40;;;;;;;;;;5078391;28;20028;-72
2023/04/08 13:25:17;;;;;;;45.92;24.45;;;;;;;;;;5075894;28;20024;-73
2023/04/08 13:27:43;;;;;;;45.72;24.88;;;;;;;;;;5077261;28;20039;-72
2023/04/08 13:30:09;;;;;;;50.83;25.48;;;;;;;;;;5079551;28;20113;-71
2023/04/08 13:32:35;;;;;;;50.92;27.58;;;;;;;;;;5075478;28;20051;-74
2023/04/08 13:35:01;;;;;;;49.45;26.17;;;;;;;;;;5078832;28;20028;-72
2023/04/08 13:37:27;;;;;;;45.13;26.17;;;;;;;;;;5076039;28;20075;-72
2023/04/08 13:39:53;;;;;;;40.55;24.98;;;;;;;;;;5075614;28;20029;-72
2023/04/08 13:42:20;;;;;;;52.17;27.20;;;;;;;;;;5075161;28;20020;-72
2023/04/08 13:44:46;;;;;;;53.08;28.38;;;;;;;;;;5076281;28;20039;-72
2023/04/08 13:47:12;;;;;;;43.97;25.80;;;;;;;;;;5082934;28;20448;-73
2023/04/08 13:49:38;;;;;;;43.25;25.23;;;;;;;;;;5085697;28;20054;-72
2023/04/08 13:52:04;;;;;;;55.25;27.73;;;;;;;;;;5077317;28;20325;-70